ENNA

Banak Airport

Lakselv, Norway
METAR ENNA 190720Z 15014KT CAVOK 30/12 Q1014 RMK WIND 1800FT 19022KT
Observed Flight Rules
Jul-19 @ 07:20 UTC (13 minutes ago) Visual Flight Rules
Wind Visibility Clouds
150° at 14 knots 10,000+ meters
  • Clear skies
Temperatures Readings
Current 30°C / 86°F
Dewpoint 12°C / 54°F
Humidity 33%
Altimeter 29.94" Hg
Pressure 1014 hPa
Elevation 8
METAR ENNA 190720Z 15014KT CAVOK 30/12 Q1014 RMK WIND 1800FT 19022KT
Observed Flight Rules
Jul-19 @ 07:20 UTC
(13 minutes ago)
VFR
Wind Visibility
150° at 14 knots 10,000+ meters
Clouds
  • Clear skies
Temperature Dewpoint
30°C / 86°F 12°C / 54°F
Humidity Altimeter Pressure
33% 29.94" Hg 1014 hPa